METAR and TAF’s


Available data for KLBB from the past 2 hours
LUBBOCK, TX
Metar
KLBB 071453Z 13004KT 10SM FEW200 26/20 A3010 RMK AO2 SLP137 T02560200 51008

14:53 UTC

Wind: 130° 4kt

Visibility: 10 SM

Sky: FEW 20000 ft

Temp: 26 deg C / 78.8 deg F

Dewpoint: 20 deg C / 68 deg F

Pressure: 30.1 inHg

TAF
KLBB 071121Z 0712/0812 12006KT P6SM FEW003
Available data for KCVN from the past 2 hours
CLOVIS MUNI, NM
Metar
KCVN 071456Z AUTO VRB06KT 10SM CLR 25/19 A3016 RMK AO2 SLP167 T02500189 50007

14:56 UTC

Wind: ° 6kt

Visibility: 10 SM

Sky:

Temp: 25 deg C / 77 deg F

Dewpoint: 19 deg C / 66.2 deg F

Pressure: 30.16 inHg